sensor_id;sensor_type;location;lat;lon;timestamp;pressure;altitude;pressure_sealevel;temperature;humidity
31483;BME280;18103;52.246;8.052;2023-05-19T00:00:22;101491.66;;;9.24;71.80
31483;BME280;18103;52.246;8.052;2023-05-19T00:02:52;101486.72;;;9.18;72.18
31483;BME280;18103;52.246;8.052;2023-05-19T00:05:21;101479.56;;;9.04;72.59
31483;BME280;18103;52.246;8.052;2023-05-19T00:07:48;101487.03;;;8.96;73.14
31483;BME280;18103;52.246;8.052;2023-05-19T00:10:16;101487.94;;;8.95;73.27
31483;BME280;18103;52.246;8.052;2023-05-19T00:12:42;101479.56;;;8.88;72.46
31483;BME280;18103;52.246;8.052;2023-05-19T00:15:08;101483.34;;;8.83;72.38
31483;BME280;18103;52.246;8.052;2023-05-19T00:17:34;101484.44;;;8.79;72.97
31483;BME280;18103;52.246;8.052;2023-05-19T00:20:01;101491.56;;;8.77;73.41
31483;BME280;18103;52.246;8.052;2023-05-19T00:22:31;101485.47;;;8.76;72.94
31483;BME280;18103;52.246;8.052;2023-05-19T00:24:59;101480.00;;;8.63;72.80
31483;BME280;18103;52.246;8.052;2023-05-19T00:27:24;101492.44;;;8.60;73.41
31483;BME280;18103;52.246;8.052;2023-05-19T00:29:50;101482.47;;;8.49;73.63
31483;BME280;18103;52.246;8.052;2023-05-19T00:32:18;101494.44;;;8.54;73.42
31483;BME280;18103;52.246;8.052;2023-05-19T00:34:43;101488.81;;;8.45;74.53
31483;BME280;18103;52.246;8.052;2023-05-19T00:37:11;101490.28;;;8.50;75.19
31483;BME280;18103;52.246;8.052;2023-05-19T00:39:36;101490.97;;;8.54;74.32
31483;BME280;18103;52.246;8.052;2023-05-19T00:42:01;101480.03;;;8.62;73.77
31483;BME280;18103;52.246;8.052;2023-05-19T00:44:27;101482.25;;;8.53;74.69
31483;BME280;18103;52.246;8.052;2023-05-19T00:46:57;101481.13;;;8.40;74.52
31483;BME280;18103;52.246;8.052;2023-05-19T00:49:22;101478.81;;;8.34;75.00
31483;BME280;18103;52.246;8.052;2023-05-19T00:51:50;101480.38;;;8.38;74.86
31483;BME280;18103;52.246;8.052;2023-05-19T00:54:19;101477.94;;;8.33;74.77
31483;BME280;18103;52.246;8.052;2023-05-19T00:56:45;101480.81;;;8.29;74.12
31483;BME280;18103;52.246;8.052;2023-05-19T00:59:10;101471.47;;;8.23;73.99
31483;BME280;18103;52.246;8.052;2023-05-19T01:01:38;101479.53;;;8.20;74.65
31483;BME280;18103;52.246;8.052;2023-05-19T01:04:04;101475.34;;;8.16;73.84
31483;BME280;18103;52.246;8.052;2023-05-19T01:06:35;101479.13;;;8.10;74.55
31483;BME280;18103;52.246;8.052;2023-05-19T01:09:04;101475.06;;;8.03;75.04
31483;BME280;18103;52.246;8.052;2023-05-19T01:11:33;101479.09;;;7.93;75.63
31483;BME280;18103;52.246;8.052;2023-05-19T01:14:00;101477.09;;;7.98;75.52
31483;BME280;18103;52.246;8.052;2023-05-19T01:22:43;101479.00;;;7.94;75.80
31483;BME280;18103;52.246;8.052;2023-05-19T01:28:13;101479.16;;;7.91;75.90
31483;BME280;18103;52.246;8.052;2023-05-19T01:30:45;101472.44;;;7.85;76.19
31483;BME280;18103;52.246;8.052;2023-05-19T01:33:13;101469.25;;;7.79;75.57
31483;BME280;18103;52.246;8.052;2023-05-19T01:35:40;101468.19;;;7.83;75.92
31483;BME280;18103;52.246;8.052;2023-05-19T01:38:10;101469.25;;;7.79;75.88
31483;BME280;18103;52.246;8.052;2023-05-19T01:40:37;101468.00;;;7.68;75.58
31483;BME280;18103;52.246;8.052;2023-05-19T01:43:08;101483.34;;;7.59;76.24
31483;BME280;18103;52.246;8.052;2023-05-19T01:45:34;101480.81;;;7.57;76.17
31483;BME280;18103;52.246;8.052;2023-05-19T01:48:04;101480.72;;;7.59;76.64
31483;BME280;18103;52.246;8.052;2023-05-19T01:50:30;101487.97;;;7.53;76.39
31483;BME280;18103;52.246;8.052;2023-05-19T01:52:58;101480.81;;;7.38;77.36
31483;BME280;18103;52.246;8.052;2023-05-19T01:55:24;101478.13;;;7.40;76.98
31483;BME280;18103;52.246;8.052;2023-05-19T01:58:17;101485.75;;;7.44;76.98
31483;BME280;18103;52.246;8.052;2023-05-19T02:03:31;101488.78;;;7.36;76.35
31483;BME280;18103;52.246;8.052;2023-05-19T02:06:21;101486.22;;;7.35;76.76
31483;BME280;18103;52.246;8.052;2023-05-19T02:09:28;101485.16;;;7.39;77.63
31483;BME280;18103;52.246;8.052;2023-05-19T02:15:00;101492.16;;;7.39;76.65
31483;BME280;18103;52.246;8.052;2023-05-19T02:17:32;101485.06;;;7.41;76.71
31483;BME280;18103;52.246;8.052;2023-05-19T02:20:00;101486.44;;;7.30;77.19
31483;BME280;18103;52.246;8.052;2023-05-19T02:22:25;101486.06;;;7.38;76.78
31483;BME280;18103;52.246;8.052;2023-05-19T02:24:51;101479.19;;;7.35;75.94
31483;BME280;18103;52.246;8.052;2023-05-19T02:27:20;101477.63;;;7.31;76.12
31483;BME280;18103;52.246;8.052;2023-05-19T02:29:45;101478.06;;;7.22;76.50
31483;BME280;18103;52.246;8.052;2023-05-19T02:32:13;101480.81;;;7.19;77.24
31483;BME280;18103;52.246;8.052;2023-05-19T02:34:39;101479.19;;;7.16;76.66
31483;BME280;18103;52.246;8.052;2023-05-19T02:37:06;101473.00;;;7.17;76.90
31483;BME280;18103;52.246;8.052;2023-05-19T02:39:31;101469.75;;;7.12;77.37
31483;BME280;18103;52.246;8.052;2023-05-19T02:42:01;101476.97;;;7.07;77.18
31483;BME280;18103;52.246;8.052;2023-05-19T02:44:26;101476.91;;;7.09;77.92
31483;BME280;18103;52.246;8.052;2023-05-19T02:46:52;101482.72;;;7.15;78.27
31483;BME280;18103;52.246;8.052;2023-05-19T02:49:17;101475.91;;;7.11;77.42
31483;BME280;18103;52.246;8.052;2023-05-19T02:51:42;101479.75;;;7.04;77.23
31483;BME280;18103;52.246;8.052;2023-05-19T02:54:08;101478.84;;;7.05;78.07
31483;BME280;18103;52.246;8.052;2023-05-19T02:56:33;101473.50;;;7.07;77.82
31483;BME280;18103;52.246;8.052;2023-05-19T02:58:58;101472.47;;;7.11;77.75
31483;BME280;18103;52.246;8.052;2023-05-19T03:01:24;101471.94;;;7.02;77.46
31483;BME280;18103;52.246;8.052;2023-05-19T03:03:50;101473.06;;;6.97;77.49
31483;BME280;18103;52.246;8.052;2023-05-19T03:06:18;101466.13;;;6.96;77.54
31483;BME280;18103;52.246;8.052;2023-05-19T03:08:44;101473.91;;;6.97;77.53
31483;BME280;18103;52.246;8.052;2023-05-19T03:11:12;101475.06;;;6.92;77.90
31483;BME280;18103;52.246;8.052;2023-05-19T03:13:37;101477.88;;;6.87;77.63
31483;BME280;18103;52.246;8.052;2023-05-19T03:16:05;101474.31;;;6.88;77.61
31483;BME280;18103;52.246;8.052;2023-05-19T03:18:32;101465.38;;;6.92;77.88
31483;BME280;18103;52.246;8.052;2023-05-19T03:21:00;101465.38;;;6.92;77.49
31483;BME280;18103;52.246;8.052;2023-05-19T03:23:25;101457.66;;;6.89;77.71
31483;BME280;18103;52.246;8.052;2023-05-19T03:25:51;101455.63;;;6.96;77.19
31483;BME280;18103;52.246;8.052;2023-05-19T03:28:18;101450.91;;;6.83;77.40
31483;BME280;18103;52.246;8.052;2023-05-19T03:30:44;101456.97;;;6.85;77.41
31483;BME280;18103;52.246;8.052;2023-05-19T03:33:09;101453.81;;;6.77;77.61
31483;BME280;18103;52.246;8.052;2023-05-19T03:35:35;101456.84;;;6.68;78.45
31483;BME280;18103;52.246;8.052;2023-05-19T03:38:00;101453.09;;;6.74;78.77
31483;BME280;18103;52.246;8.052;2023-05-19T03:40:31;101450.16;;;6.81;78.59
31483;BME280;18103;52.246;8.052;2023-05-19T03:42:58;101461.13;;;6.90;78.51
31483;BME280;18103;52.246;8.052;2023-05-19T03:45:25;101462.00;;;6.90;78.27
31483;BME280;18103;52.246;8.052;2023-05-19T03:47:52;101461.84;;;6.93;77.91
31483;BME280;18103;52.246;8.052;2023-05-19T03:50:18;101460.88;;;6.96;77.51
31483;BME280;18103;52.246;8.052;2023-05-19T03:52:43;101463.50;;;6.96;77.68
31483;BME280;18103;52.246;8.052;2023-05-19T03:55:10;101472.06;;;6.99;77.45
31483;BME280;18103;52.246;8.052;2023-05-19T03:57:38;101466.63;;;7.04;76.85
31483;BME280;18103;52.246;8.052;2023-05-19T04:00:04;101466.69;;;7.02;77.33
31483;BME280;18103;52.246;8.052;2023-05-19T04:02:30;101463.19;;;7.02;76.65
31483;BME280;18103;52.246;8.052;2023-05-19T04:04:58;101464.34;;;6.96;76.84
31483;BME280;18103;52.246;8.052;2023-05-19T04:07:29;101461.84;;;6.93;77.87
31483;BME280;18103;52.246;8.052;2023-05-19T04:09:54;101470.47;;;6.97;78.26
31483;BME280;18103;52.246;8.052;2023-05-19T04:12:22;101467.75;;;6.98;78.10
31483;BME280;18103;52.246;8.052;2023-05-19T04:14:50;101468.53;;;7.00;77.59
31483;BME280;18103;52.246;8.052;2023-05-19T04:17:15;101482.31;;;7.06;77.73
31483;BME280;18103;52.246;8.052;2023-05-19T04:19:43;101477.63;;;7.12;76.72
31483;BME280;18103;52.246;8.052;2023-05-19T04:22:09;101484.44;;;7.16;76.80
31483;BME280;18103;52.246;8.052;2023-05-19T04:24:34;101472.22;;;7.15;77.33
31483;BME280;18103;52.246;8.052;2023-05-19T04:27:00;101484.53;;;7.15;77.47
31483;BME280;18103;52.246;8.052;2023-05-19T04:29:29;101478.19;;;7.19;76.72
31483;BME280;18103;52.246;8.052;2023-05-19T04:31:57;101482.09;;;7.29;76.63
31483;BME280;18103;52.246;8.052;2023-05-19T04:34:23;101476.84;;;7.29;75.98
31483;BME280;18103;52.246;8.052;2023-05-19T04:36:55;101480.16;;;7.33;77.54
31483;BME280;18103;52.246;8.052;2023-05-19T04:39:23;101477.13;;;7.42;76.20
31483;BME280;18103;52.246;8.052;2023-05-19T04:41:50;101480.50;;;7.44;76.02
31483;BME280;18103;52.246;8.052;2023-05-19T04:44:20;101482.44;;;7.41;76.69
31483;BME280;18103;52.246;8.052;2023-05-19T04:46:45;101484.59;;;7.51;76.85
31483;BME280;18103;52.246;8.052;2023-05-19T04:49:11;101485.84;;;7.62;76.40
31483;BME280;18103;52.246;8.052;2023-05-19T04:51:39;101479.75;;;7.61;75.69
31483;BME280;18103;52.246;8.052;2023-05-19T04:54:10;101478.59;;;7.67;75.20
31483;BME280;18103;52.246;8.052;2023-05-19T04:56:37;101480.69;;;7.78;75.02
31483;BME280;18103;52.246;8.052;2023-05-19T04:59:05;101477.78;;;7.84;74.92
31483;BME280;18103;52.246;8.052;2023-05-19T05:01:31;101473.59;;;7.97;74.60
31483;BME280;18103;52.246;8.052;2023-05-19T05:03:57;101478.41;;;8.07;74.54
31483;BME280;18103;52.246;8.052;2023-05-19T05:06:23;101474.63;;;8.12;73.73
31483;BME280;18103;52.246;8.052;2023-05-19T05:08:49;101478.72;;;8.18;73.70
31483;BME280;18103;52.246;8.052;2023-05-19T05:11:17;101475.66;;;8.27;73.51
31483;BME280;18103;52.246;8.052;2023-05-19T05:13:43;101478.81;;;8.34;73.02
31483;BME280;18103;52.246;8.052;2023-05-19T05:16:09;101479.06;;;8.47;72.50
31483;BME280;18103;52.246;8.052;2023-05-19T05:18:35;101474.94;;;8.59;72.18
31483;BME280;18103;52.246;8.052;2023-05-19T05:21:03;101473.59;;;8.67;72.43
31483;BME280;18103;52.246;8.052;2023-05-19T05:23:29;101469.88;;;8.71;72.53
31483;BME280;18103;52.246;8.052;2023-05-19T05:25:55;101468.72;;;8.77;71.88
31483;BME280;18103;52.246;8.052;2023-05-19T05:28:20;101481.56;;;8.83;71.73
31483;BME280;18103;52.246;8.052;2023-05-19T05:30:45;101481.41;;;8.86;72.42
31483;BME280;18103;52.246;8.052;2023-05-19T05:33:14;101468.59;;;8.96;72.32
31483;BME280;18103;52.246;8.052;2023-05-19T05:35:39;101479.09;;;9.14;71.57
31483;BME280;18103;52.246;8.052;2023-05-19T05:38:04;101480.53;;;9.19;71.60
31483;BME280;18103;52.246;8.052;2023-05-19T05:40:32;101474.06;;;9.25;72.14
31483;BME280;18103;52.246;8.052;2023-05-19T05:42:57;101482.84;;;9.41;71.39
31483;BME280;18103;52.246;8.052;2023-05-19T05:45:23;101472.03;;;9.46;71.72
31483;BME280;18103;52.246;8.052;2023-05-19T05:47:49;101481.03;;;9.58;71.17
31483;BME280;18103;52.246;8.052;2023-05-19T05:50:15;101473.78;;;9.77;70.83
31483;BME280;18103;52.246;8.052;2023-05-19T05:52:40;101467.22;;;9.85;70.26
31483;BME280;18103;52.246;8.052;2023-05-19T05:55:15;101470.13;;;9.96;70.58
31483;BME280;18103;52.246;8.052;2023-05-19T05:57:43;101472.88;;;10.09;69.28
31483;BME280;18103;52.246;8.052;2023-05-19T06:00:09;101472.91;;;10.23;68.72
31483;BME280;18103;52.246;8.052;2023-05-19T06:02:47;101474.59;;;10.40;68.17
31483;BME280;18103;52.246;8.052;2023-05-19T06:05:13;101472.16;;;10.52;68.08
31483;BME280;18103;52.246;8.052;2023-05-19T06:07:41;101471.78;;;10.58;67.39
31483;BME280;18103;52.246;8.052;2023-05-19T06:10:10;101478.69;;;10.75;67.66
31483;BME280;18103;52.246;8.052;2023-05-19T06:12:35;101474.44;;;10.87;67.74
31483;BME280;18103;52.246;8.052;2023-05-19T06:15:04;101467.47;;;11.00;66.43
31483;BME280;18103;52.246;8.052;2023-05-19T06:17:30;101467.72;;;11.10;66.71
31483;BME280;18103;52.246;8.052;2023-05-19T06:19:55;101468.63;;;11.23;66.54
31483;BME280;18103;52.246;8.052;2023-05-19T06:22:21;101465.72;;;11.13;67.74
31483;BME280;18103;52.246;8.052;2023-05-19T06:24:46;101477.88;;;11.45;66.49
31483;BME280;18103;52.246;8.052;2023-05-19T06:27:14;101463.19;;;11.54;65.54
31483;BME280;18103;52.246;8.052;2023-05-19T06:29:42;101470.53;;;11.63;65.96
31483;BME280;18103;52.246;8.052;2023-05-19T06:32:08;101464.81;;;11.84;65.30
31483;BME280;18103;52.246;8.052;2023-05-19T06:34:33;101460.97;;;12.02;65.27
31483;BME280;18103;52.246;8.052;2023-05-19T06:37:01;101465.13;;;12.19;64.64
31483;BME280;18103;52.246;8.052;2023-05-19T06:39:26;101462.38;;;12.21;64.46
31483;BME280;18103;52.246;8.052;2023-05-19T06:41:57;101459.00;;;12.44;64.31
31483;BME280;18103;52.246;8.052;2023-05-19T06:44:22;101458.38;;;12.41;64.62
31483;BME280;18103;52.246;8.052;2023-05-19T06:46:50;101459.88;;;12.58;65.13
31483;BME280;18103;52.246;8.052;2023-05-19T06:49:16;101461.03;;;12.79;62.96
31483;BME280;18103;52.246;8.052;2023-05-19T06:51:43;101454.88;;;12.92;62.35
31483;BME280;18103;52.246;8.052;2023-05-19T06:54:09;101456.84;;;13.14;62.04
31483;BME280;18103;52.246;8.052;2023-05-19T06:56:40;101465.09;;;13.09;61.94
31483;BME280;18103;52.246;8.052;2023-05-19T06:59:05;101462.38;;;12.85;64.05
31483;BME280;18103;52.246;8.052;2023-05-19T07:01:38;101460.38;;;13.39;62.57
31483;BME280;18103;52.246;8.052;2023-05-19T07:04:03;101469.63;;;13.46;61.29
31483;BME280;18103;52.246;8.052;2023-05-19T07:06:29;101460.13;;;13.55;60.80
31483;BME280;18103;52.246;8.052;2023-05-19T07:08:57;101460.19;;;13.66;61.54
31483;BME280;18103;52.246;8.052;2023-05-19T07:11:26;101459.91;;;13.58;62.49
31483;BME280;18103;52.246;8.052;2023-05-19T07:13:53;101459.19;;;13.56;62.58
31483;BME280;18103;52.246;8.052;2023-05-19T07:16:21;101459.09;;;13.93;61.05
31483;BME280;18103;52.246;8.052;2023-05-19T07:18:49;101464.03;;;14.22;60.32
31483;BME280;18103;52.246;8.052;2023-05-19T07:21:16;101458.34;;;14.26;60.19
31483;BME280;18103;52.246;8.052;2023-05-19T07:23:42;101452.38;;;14.47;60.83
31483;BME280;18103;52.246;8.052;2023-05-19T07:26:09;101463.84;;;14.59;60.21
31483;BME280;18103;52.246;8.052;2023-05-19T07:28:34;101447.59;;;14.16;61.25
31483;BME280;18103;52.246;8.052;2023-05-19T07:31:00;101451.91;;;14.64;59.62
31483;BME280;18103;52.246;8.052;2023-05-19T07:33:30;101446.03;;;14.72;58.85
31483;BME280;18103;52.246;8.052;2023-05-19T07:35:55;101450.97;;;14.88;59.23
31483;BME280;18103;52.246;8.052;2023-05-19T07:38:20;101450.84;;;14.89;59.19
31483;BME280;18103;52.246;8.052;2023-05-19T07:40:47;101448.94;;;14.80;59.97
31483;BME280;18103;52.246;8.052;2023-05-19T07:43:13;101446.25;;;15.03;59.22
31483;BME280;18103;52.246;8.052;2023-05-19T07:45:40;101446.09;;;15.27;58.32
31483;BME280;18103;52.246;8.052;2023-05-19T07:48:06;101446.69;;;15.31;59.10
31483;BME280;18103;52.246;8.052;2023-05-19T07:50:31;101451.50;;;15.37;58.88
31483;BME280;18103;52.246;8.052;2023-05-19T07:52:57;101450.66;;;15.36;58.21
31483;BME280;18103;52.246;8.052;2023-05-19T07:55:22;101448.09;;;15.46;56.79
31483;BME280;18103;52.246;8.052;2023-05-19T07:57:48;101450.00;;;15.55;56.66
31483;BME280;18103;52.246;8.052;2023-05-19T08:00:17;101440.66;;;15.72;55.66
31483;BME280;18103;52.246;8.052;2023-05-19T08:02:45;101440.47;;;15.53;55.93
31483;BME280;18103;52.246;8.052;2023-05-19T08:05:11;101434.69;;;15.80;56.50
31483;BME280;18103;52.246;8.052;2023-05-19T08:07:39;101431.72;;;15.95;56.08
31483;BME280;18103;52.246;8.052;2023-05-19T08:10:06;101429.94;;;15.95;55.64
31483;BME280;18103;52.246;8.052;2023-05-19T08:12:32;101429.94;;;15.95;55.08
31483;BME280;18103;52.246;8.052;2023-05-19T08:14:59;101426.53;;;16.14;55.17
31483;BME280;18103;52.246;8.052;2023-05-19T08:17:27;101418.88;;;16.21;54.62
31483;BME280;18103;52.246;8.052;2023-05-19T08:19:53;101424.34;;;16.19;54.63
31483;BME280;18103;52.246;8.052;2023-05-19T08:22:18;101421.91;;;16.37;54.72
31483;BME280;18103;52.246;8.052;2023-05-19T08:24:43;101426.72;;;16.43;55.17
31483;BME280;18103;52.246;8.052;2023-05-19T08:27:12;101424.22;;;16.52;54.69
31483;BME280;18103;52.246;8.052;2023-05-19T08:29:37;101423.13;;;16.54;54.45
31483;BME280;18103;52.246;8.052;2023-05-19T08:32:02;101420.03;;;16.59;55.00
31483;BME280;18103;52.246;8.052;2023-05-19T08:34:29;101413.59;;;16.62;54.53
31483;BME280;18103;52.246;8.052;2023-05-19T08:36:55;101415.97;;;16.86;54.17
31483;BME280;18103;52.246;8.052;2023-05-19T08:39:22;101415.31;;;16.93;54.96
31483;BME280;18103;52.246;8.052;2023-05-19T08:41:54;101408.16;;;17.04;53.99
31483;BME280;18103;52.246;8.052;2023-05-19T08:44:22;101412.38;;;16.97;53.12
31483;BME280;18103;52.246;8.052;2023-05-19T08:46:49;101405.16;;;16.87;52.11
31483;BME280;18103;52.246;8.052;2023-05-19T08:49:22;101398.25;;;17.16;52.92
31483;BME280;18103;52.246;8.052;2023-05-19T08:55:33;101397.53;;;17.23;52.16
31483;BME280;18103;52.246;8.052;2023-05-19T08:57:52;101390.66;;;17.21;51.62
31483;BME280;18103;52.246;8.052;2023-05-19T09:00:20;101399.38;;;17.23;51.60
31483;BME280;18103;52.246;8.052;2023-05-19T09:02:51;101393.75;;;17.26;51.10
31483;BME280;18103;52.246;8.052;2023-05-19T09:05:20;101385.38;;;17.50;52.10
31483;BME280;18103;52.246;8.052;2023-05-19T09:07:45;101381.53;;;17.62;50.61
31483;BME280;18103;52.246;8.052;2023-05-19T09:10:14;101379.59;;;17.45;49.04
31483;BME280;18103;52.246;8.052;2023-05-19T09:12:44;101381.38;;;17.74;50.86
31483;BME280;18103;52.246;8.052;2023-05-19T09:15:11;101375.94;;;17.85;51.31
31483;BME280;18103;52.246;8.052;2023-05-19T09:17:40;101384.22;;;17.72;51.11
31483;BME280;18103;52.246;8.052;2023-05-19T09:20:05;101375.78;;;17.87;49.39
31483;BME280;18103;52.246;8.052;2023-05-19T09:22:40;101379.16;;;17.69;49.82
31483;BME280;18103;52.246;8.052;2023-05-19T09:25:25;101380.72;;;17.52;47.99
31483;BME280;18103;52.246;8.052;2023-05-19T09:27:53;101372.53;;;17.83;49.24
31483;BME280;18103;52.246;8.052;2023-05-19T09:30:19;101372.25;;;17.96;49.19
31483;BME280;18103;52.246;8.052;2023-05-19T09:32:45;101366.09;;;17.95;47.81
31483;BME280;18103;52.246;8.052;2023-05-19T09:35:15;101359.75;;;17.77;46.49
31483;BME280;18103;52.246;8.052;2023-05-19T09:37:46;101355.53;;;18.04;49.46
31483;BME280;18103;52.246;8.052;2023-05-19T09:40:13;101351.31;;;18.01;49.89
31483;BME280;18103;52.246;8.052;2023-05-19T09:42:42;101357.91;;;18.07;49.49
31483;BME280;18103;52.246;8.052;2023-05-19T09:45:10;101351.66;;;18.26;50.26
31483;BME280;18103;52.246;8.052;2023-05-19T09:47:39;101348.53;;;18.30;49.16
31483;BME280;18103;52.246;8.052;2023-05-19T09:50:09;101355.88;;;18.56;48.07
31483;BME280;18103;52.246;8.052;2023-05-19T09:52:36;101347.47;;;18.51;46.77
31483;BME280;18103;52.246;8.052;2023-05-19T09:55:02;101340.28;;;18.52;47.71
31483;BME280;18103;52.246;8.052;2023-05-19T09:57:33;101355.94;;;18.46;46.15
31483;BME280;18103;52.246;8.052;2023-05-19T10:00:02;101341.38;;;18.59;46.75
31483;BME280;18103;52.246;8.052;2023-05-19T10:02:32;101348.63;;;18.76;47.57
31483;BME280;18103;52.246;8.052;2023-05-19T10:04:59;101332.53;;;18.58;45.05
31483;BME280;18103;52.246;8.052;2023-05-19T10:07:25;101330.38;;;18.62;45.54
31483;BME280;18103;52.246;8.052;2023-05-19T10:09:52;101321.47;;;18.71;46.09
31483;BME280;18103;52.246;8.052;2023-05-19T10:12:23;101336.16;;;18.85;46.25
31483;BME280;18103;52.246;8.052;2023-05-19T10:14:53;101329.25;;;18.92;44.94
31483;BME280;18103;52.246;8.052;2023-05-19T10:17:21;101325.44;;;19.13;45.86
31483;BME280;18103;52.246;8.052;2023-05-19T10:19:52;101341.75;;;19.20;43.21
31483;BME280;18103;52.246;8.052;2023-05-19T10:22:19;101322.22;;;18.91;42.42
31483;BME280;18103;52.246;8.052;2023-05-19T10:24:44;101321.25;;;19.10;43.66
31483;BME280;18103;52.246;8.052;2023-05-19T10:27:13;101321.31;;;19.01;43.37
31483;BME280;18103;52.246;8.052;2023-05-19T10:29:46;101326.75;;;18.81;44.44
31483;BME280;18103;52.246;8.052;2023-05-19T10:32:22;101331.19;;;18.72;43.23
31483;BME280;18103;52.246;8.052;2023-05-19T10:37:56;101331.22;;;18.62;42.37
31483;BME280;18103;52.246;8.052;2023-05-19T10:40:32;101332.25;;;18.24;42.56
31483;BME280;18103;52.246;8.052;2023-05-19T10:45:50;101315.63;;;18.58;42.73
31483;BME280;18103;52.246;8.052;2023-05-19T10:48:20;101316.81;;;18.73;43.36
31483;BME280;18103;52.246;8.052;2023-05-19T10:50:52;101316.69;;;18.47;42.76
31483;BME280;18103;52.246;8.052;2023-05-19T10:53:19;101307.16;;;18.90;44.12
31483;BME280;18103;52.246;8.052;2023-05-19T10:55:50;101317.81;;;18.72;43.76
31483;BME280;18103;52.246;8.052;2023-05-19T10:58:35;101305.34;;;18.81;43.80
31483;BME280;18103;52.246;8.052;2023-05-19T11:01:33;101299.00;;;18.64;43.68
31483;BME280;18103;52.246;8.052;2023-05-19T11:04:09;101299.00;;;18.92;44.51
31483;BME280;18103;52.246;8.052;2023-05-19T11:06:39;101306.16;;;18.91;44.19
31483;BME280;18103;52.246;8.052;2023-05-19T11:09:16;101294.06;;;19.41;44.05
31483;BME280;18103;52.246;8.052;2023-05-19T11:11:50;101291.00;;;19.36;43.96
31483;BME280;18103;52.246;8.052;2023-05-19T11:14:25;101290.50;;;19.14;43.26
31483;BME280;18103;52.246;8.052;2023-05-19T11:16:57;101289.78;;;19.30;43.52
31483;BME280;18103;52.246;8.052;2023-05-19T11:19:30;101298.75;;;19.21;42.24
31483;BME280;18103;52.246;8.052;2023-05-19T11:21:58;101290.00;;;19.37;43.40
31483;BME280;18103;52.246;8.052;2023-05-19T11:26:59;101292.28;;;19.94;42.52
31483;BME280;18103;52.246;8.052;2023-05-19T11:29:24;101287.41;;;20.24;43.31
31483;BME280;18103;52.246;8.052;2023-05-19T11:31:53;101285.41;;;19.92;43.64
31483;BME280;18103;52.246;8.052;2023-05-19T11:34:18;101279.16;;;19.83;42.73
31483;BME280;18103;52.246;8.052;2023-05-19T11:36:46;101285.53;;;19.64;42.86
31483;BME280;18103;52.246;8.052;2023-05-19T11:39:15;101280.38;;;19.71;41.45
31483;BME280;18103;52.246;8.052;2023-05-19T11:41:42;101287.41;;;20.24;41.67
31483;BME280;18103;52.246;8.052;2023-05-19T11:44:10;101285.16;;;20.46;40.83
31483;BME280;18103;52.246;8.052;2023-05-19T11:46:38;101286.56;;;20.66;41.46
31483;BME280;18103;52.246;8.052;2023-05-19T11:49:06;101277.34;;;19.92;39.81
31483;BME280;18103;52.246;8.052;2023-05-19T11:51:31;101284.84;;;20.14;41.06
31483;BME280;18103;52.246;8.052;2023-05-19T11:53:57;101293.00;;;20.05;39.69
31483;BME280;18103;52.246;8.052;2023-05-19T11:56:23;101288.63;;;19.95;38.98
31483;BME280;18103;52.246;8.052;2023-05-19T11:58:52;101278.75;;;19.78;38.85
31483;BME280;18103;52.246;8.052;2023-05-19T12:01:17;101286.66;;;19.79;39.01
31483;BME280;18103;52.246;8.052;2023-05-19T12:03:43;101280.16;;;19.82;38.80
31483;BME280;18103;52.246;8.052;2023-05-19T12:06:09;101277.50;;;19.64;38.83
31483;BME280;18103;52.246;8.052;2023-05-19T12:08:41;101276.94;;;19.78;39.91
31483;BME280;18103;52.246;8.052;2023-05-19T12:11:10;101272.72;;;19.76;40.96
31483;BME280;18103;52.246;8.052;2023-05-19T12:13:37;101268.84;;;19.70;41.05
31483;BME280;18103;52.246;8.052;2023-05-19T12:16:03;101273.38;;;19.78;40.24
31483;BME280;18103;52.246;8.052;2023-05-19T12:18:35;101274.31;;;19.60;40.41
31483;BME280;18103;52.246;8.052;2023-05-19T12:21:03;101258.03;;;19.36;39.44
31483;BME280;18103;52.246;8.052;2023-05-19T12:23:29;101259.59;;;19.64;40.28
31483;BME280;18103;52.246;8.052;2023-05-19T12:25:58;101259.44;;;19.66;40.28
31483;BME280;18103;52.246;8.052;2023-05-19T12:28:25;101258.69;;;19.56;39.99
31483;BME280;18103;52.246;8.052;2023-05-19T12:30:53;101251.84;;;19.61;39.36
31483;BME280;18103;52.246;8.052;2023-05-19T12:33:23;101254.28;;;19.73;40.28
31483;BME280;18103;52.246;8.052;2023-05-19T12:35:52;101252.34;;;20.09;38.92
31483;BME280;18103;52.246;8.052;2023-05-19T12:38:18;101243.19;;;19.86;37.82
31483;BME280;18103;52.246;8.052;2023-05-19T12:40:45;101239.97;;;20.16;38.19
31483;BME280;18103;52.246;8.052;2023-05-19T12:43:23;101239.53;;;20.38;38.41
31483;BME280;18103;52.246;8.052;2023-05-19T12:45:50;101244.91;;;20.46;38.05
31483;BME280;18103;52.246;8.052;2023-05-19T12:48:16;101234.97;;;20.81;37.87
31483;BME280;18103;52.246;8.052;2023-05-19T12:50:43;101248.88;;;20.68;38.00
31483;BME280;18103;52.246;8.052;2023-05-19T12:53:12;101249.75;;;21.10;37.69
31483;BME280;18103;52.246;8.052;2023-05-19T12:55:42;101242.88;;;21.15;37.50
31483;BME280;18103;52.246;8.052;2023-05-19T12:58:11;101246.88;;;21.28;37.53
31483;BME280;18103;52.246;8.052;2023-05-19T13:00:43;101233.28;;;20.80;36.04
31483;BME280;18103;52.246;8.052;2023-05-19T13:03:17;101240.00;;;20.92;36.37
31483;BME280;18103;52.246;8.052;2023-05-19T13:05:48;101242.63;;;20.67;35.91
31483;BME280;18103;52.246;8.052;2023-05-19T13:08:23;101234.03;;;20.56;35.82
31483;BME280;18103;52.246;8.052;2023-05-19T13:10:51;101238.97;;;21.18;35.74
31483;BME280;18103;52.246;8.052;2023-05-19T13:13:16;101233.59;;;20.68;34.97
31483;BME280;18103;52.246;8.052;2023-05-19T13:15:43;101234.59;;;20.67;36.01
31483;BME280;18103;52.246;8.052;2023-05-19T13:18:10;101237.97;;;20.94;35.31
31483;BME280;18103;52.246;8.052;2023-05-19T13:20:37;101222.56;;;21.21;36.58
31483;BME280;18103;52.246;8.052;2023-05-19T13:23:06;101227.75;;;21.31;35.36
31483;BME280;18103;52.246;8.052;2023-05-19T13:25:34;101225.03;;;21.47;34.79